sensor_id;sensor_type;location;lat;lon;timestamp;P1;durP1;ratioP1;P2;durP2;ratioP2
14472;SDS011;7322;50.872;4.386;2022-11-20T00:02:17;39.20;;;25.17;;
14472;SDS011;7322;50.872;4.386;2022-11-20T00:07:39;40.17;;;26.53;;
14472;SDS011;7322;50.872;4.386;2022-11-20T00:10:23;40.30;;;26.00;;
14472;SDS011;7322;50.872;4.386;2022-11-20T00:12:58;41.60;;;24.13;;
14472;SDS011;7322;50.872;4.386;2022-11-20T00:15:30;37.67;;;25.40;;
14472;SDS011;7322;50.872;4.386;2022-11-20T00:18:11;40.63;;;25.27;;
14472;SDS011;7322;50.872;4.386;2022-11-20T00:20:41;39.23;;;25.60;;
14472;SDS011;7322;50.872;4.386;2022-11-20T00:23:19;37.50;;;24.90;;
14472;SDS011;7322;50.872;4.386;2022-11-20T00:28:34;42.27;;;27.07;;
14472;SDS011;7322;50.872;4.386;2022-11-20T00:31:03;49.13;;;28.87;;
14472;SDS011;7322;50.872;4.386;2022-11-20T00:36:16;42.87;;;26.33;;
14472;SDS011;7322;50.872;4.386;2022-11-20T00:38:59;39.63;;;25.57;;
14472;SDS011;7322;50.872;4.386;2022-11-20T00:41:38;43.97;;;27.27;;
14472;SDS011;7322;50.872;4.386;2022-11-20T00:47:00;44.80;;;26.63;;
14472;SDS011;7322;50.872;4.386;2022-11-20T00:49:31;41.90;;;26.07;;
14472;SDS011;7322;50.872;4.386;2022-11-20T00:51:58;46.40;;;27.60;;
14472;SDS011;7322;50.872;4.386;2022-11-20T00:57:19;47.60;;;28.60;;
14472;SDS011;7322;50.872;4.386;2022-11-20T00:59:48;47.43;;;28.07;;
14472;SDS011;7322;50.872;4.386;2022-11-20T01:02:15;55.43;;;30.87;;
14472;SDS011;7322;50.872;4.386;2022-11-20T01:04:43;51.07;;;30.17;;
14472;SDS011;7322;50.872;4.386;2022-11-20T01:07:14;46.90;;;29.63;;
14472;SDS011;7322;50.872;4.386;2022-11-20T01:09:41;51.33;;;31.43;;
14472;SDS011;7322;50.872;4.386;2022-11-20T01:12:12;51.57;;;31.33;;
14472;SDS011;7322;50.872;4.386;2022-11-20T01:14:47;50.43;;;31.63;;
14472;SDS011;7322;50.872;4.386;2022-11-20T01:17:15;53.57;;;31.83;;
14472;SDS011;7322;50.872;4.386;2022-11-20T01:19:50;52.87;;;32.90;;
14472;SDS011;7322;50.872;4.386;2022-11-20T01:22:31;55.07;;;32.33;;
14472;SDS011;7322;50.872;4.386;2022-11-20T01:31:44;52.60;;;32.67;;
14472;SDS011;7322;50.872;4.386;2022-11-20T01:34:12;53.73;;;34.10;;
14472;SDS011;7322;50.872;4.386;2022-11-20T01:50:00;58.87;;;35.00;;
14472;SDS011;7322;50.872;4.386;2022-11-20T01:52:33;64.17;;;36.27;;
14472;SDS011;7322;50.872;4.386;2022-11-20T01:55:06;61.73;;;36.17;;
14472;SDS011;7322;50.872;4.386;2022-11-20T01:57:42;60.00;;;37.00;;
14472;SDS011;7322;50.872;4.386;2022-11-20T02:00:13;63.07;;;35.90;;
14472;SDS011;7322;50.872;4.386;2022-11-20T02:02:50;60.43;;;37.10;;
14472;SDS011;7322;50.872;4.386;2022-11-20T02:05:22;62.60;;;35.67;;
14472;SDS011;7322;50.872;4.386;2022-11-20T02:07:55;61.67;;;36.30;;
14472;SDS011;7322;50.872;4.386;2022-11-20T02:10:25;68.33;;;38.40;;
14472;SDS011;7322;50.872;4.386;2022-11-20T02:13:10;65.97;;;37.80;;
14472;SDS011;7322;50.872;4.386;2022-11-20T02:16:04;59.73;;;34.57;;
14472;SDS011;7322;50.872;4.386;2022-11-20T02:18:44;60.27;;;35.23;;
14472;SDS011;7322;50.872;4.386;2022-11-20T02:24:11;59.53;;;34.37;;
14472;SDS011;7322;50.872;4.386;2022-11-20T02:26:51;66.20;;;35.97;;
14472;SDS011;7322;50.872;4.386;2022-11-20T02:29:23;62.57;;;36.13;;
14472;SDS011;7322;50.872;4.386;2022-11-20T02:34:45;71.27;;;36.70;;
14472;SDS011;7322;50.872;4.386;2022-11-20T02:37:19;63.57;;;35.67;;
14472;SDS011;7322;50.872;4.386;2022-11-20T02:40:07;66.60;;;37.43;;
14472;SDS011;7322;50.872;4.386;2022-11-20T02:45:43;61.37;;;34.37;;
14472;SDS011;7322;50.872;4.386;2022-11-20T02:48:10;49.33;;;31.00;;
14472;SDS011;7322;50.872;4.386;2022-11-20T02:50:48;51.97;;;31.17;;
14472;SDS011;7322;50.872;4.386;2022-11-20T02:53:27;50.83;;;31.07;;
14472;SDS011;7322;50.872;4.386;2022-11-20T02:56:04;43.40;;;27.03;;
14472;SDS011;7322;50.872;4.386;2022-11-20T02:58:34;44.07;;;26.77;;
14472;SDS011;7322;50.872;4.386;2022-11-20T03:03:51;48.47;;;27.30;;
14472;SDS011;7322;50.872;4.386;2022-11-20T03:06:20;45.13;;;26.40;;
14472;SDS011;7322;50.872;4.386;2022-11-20T03:08:56;41.87;;;25.67;;
14472;SDS011;7322;50.872;4.386;2022-11-20T03:11:32;46.57;;;27.73;;
14472;SDS011;7322;50.872;4.386;2022-11-20T03:14:12;44.00;;;26.17;;
14472;SDS011;7322;50.872;4.386;2022-11-20T03:16:44;48.53;;;27.13;;
14472;SDS011;7322;50.872;4.386;2022-11-20T03:29:08;41.43;;;24.80;;
14472;SDS011;7322;50.872;4.386;2022-11-20T03:31:36;41.23;;;23.97;;
14472;SDS011;7322;50.872;4.386;2022-11-20T03:34:13;40.50;;;24.33;;
14472;SDS011;7322;50.872;4.386;2022-11-20T03:36:48;42.23;;;24.60;;
14472;SDS011;7322;50.872;4.386;2022-11-20T03:39:25;41.00;;;24.53;;
14472;SDS011;7322;50.872;4.386;2022-11-20T03:42:02;40.70;;;24.40;;
14472;SDS011;7322;50.872;4.386;2022-11-20T03:44:57;41.30;;;22.87;;
14472;SDS011;7322;50.872;4.386;2022-11-20T03:47:27;39.10;;;23.30;;
14472;SDS011;7322;50.872;4.386;2022-11-20T03:50:16;42.87;;;24.03;;
14472;SDS011;7322;50.872;4.386;2022-11-20T03:52:52;40.83;;;24.20;;
14472;SDS011;7322;50.872;4.386;2022-11-20T03:55:29;41.20;;;23.63;;
14472;SDS011;7322;50.872;4.386;2022-11-20T03:57:57;43.67;;;24.63;;
14472;SDS011;7322;50.872;4.386;2022-11-20T04:00:31;43.30;;;25.03;;
14472;SDS011;7322;50.872;4.386;2022-11-20T04:05:45;43.43;;;25.33;;
14472;SDS011;7322;50.872;4.386;2022-11-20T04:08:16;41.03;;;25.27;;
14472;SDS011;7322;50.872;4.386;2022-11-20T04:10:45;42.40;;;24.87;;
14472;SDS011;7322;50.872;4.386;2022-11-20T04:13:17;42.90;;;24.63;;
14472;SDS011;7322;50.872;4.386;2022-11-20T04:18:55;44.13;;;25.20;;
14472;SDS011;7322;50.872;4.386;2022-11-20T04:24:18;43.57;;;24.90;;
14472;SDS011;7322;50.872;4.386;2022-11-20T04:26:46;44.27;;;24.93;;
14472;SDS011;7322;50.872;4.386;2022-11-20T04:29:14;44.97;;;26.77;;
14472;SDS011;7322;50.872;4.386;2022-11-20T04:31:44;46.77;;;26.47;;
14472;SDS011;7322;50.872;4.386;2022-11-20T04:34:11;50.37;;;27.47;;
14472;SDS011;7322;50.872;4.386;2022-11-20T04:36:40;45.43;;;27.17;;
14472;SDS011;7322;50.872;4.386;2022-11-20T04:39:14;52.47;;;27.87;;
14472;SDS011;7322;50.872;4.386;2022-11-20T04:41:43;51.87;;;28.53;;
14472;SDS011;7322;50.872;4.386;2022-11-20T04:44:10;53.67;;;28.80;;
14472;SDS011;7322;50.872;4.386;2022-11-20T04:46:48;51.57;;;28.67;;
14472;SDS011;7322;50.872;4.386;2022-11-20T04:49:16;55.47;;;29.80;;
14472;SDS011;7322;50.872;4.386;2022-11-20T04:51:44;55.60;;;29.20;;
14472;SDS011;7322;50.872;4.386;2022-11-20T04:54:11;62.90;;;31.13;;
14472;SDS011;7322;50.872;4.386;2022-11-20T04:56:41;57.93;;;30.30;;
14472;SDS011;7322;50.872;4.386;2022-11-20T04:59:10;60.03;;;30.93;;
14472;SDS011;7322;50.872;4.386;2022-11-20T05:01:40;59.53;;;30.60;;
14472;SDS011;7322;50.872;4.386;2022-11-20T05:07:10;55.80;;;29.57;;
14472;SDS011;7322;50.872;4.386;2022-11-20T05:09:48;58.67;;;30.53;;
14472;SDS011;7322;50.872;4.386;2022-11-20T05:18:03;59.40;;;29.97;;
14472;SDS011;7322;50.872;4.386;2022-11-20T05:20:36;58.83;;;30.07;;
14472;SDS011;7322;50.872;4.386;2022-11-20T05:23:03;60.53;;;30.10;;
14472;SDS011;7322;50.872;4.386;2022-11-20T05:25:30;62.77;;;30.33;;
14472;SDS011;7322;50.872;4.386;2022-11-20T05:27:59;59.07;;;30.67;;
14472;SDS011;7322;50.872;4.386;2022-11-20T05:30:26;60.07;;;31.70;;
14472;SDS011;7322;50.872;4.386;2022-11-20T05:32:55;58.63;;;30.83;;
14472;SDS011;7322;50.872;4.386;2022-11-20T05:35:36;58.43;;;30.27;;
14472;SDS011;7322;50.872;4.386;2022-11-20T05:38:16;55.57;;;29.80;;
14472;SDS011;7322;50.872;4.386;2022-11-20T05:43:31;59.13;;;30.97;;
14472;SDS011;7322;50.872;4.386;2022-11-20T05:46:02;54.60;;;30.03;;
14472;SDS011;7322;50.872;4.386;2022-11-20T05:48:33;60.93;;;30.57;;
14472;SDS011;7322;50.872;4.386;2022-11-20T05:51:03;57.37;;;31.03;;
14472;SDS011;7322;50.872;4.386;2022-11-20T05:53:32;60.57;;;29.97;;
14472;SDS011;7322;50.872;4.386;2022-11-20T05:56:18;55.43;;;30.20;;
14472;SDS011;7322;50.872;4.386;2022-11-20T05:58:47;55.90;;;30.03;;
14472;SDS011;7322;50.872;4.386;2022-11-20T06:01:18;58.07;;;29.73;;
14472;SDS011;7322;50.872;4.386;2022-11-20T06:03:47;58.23;;;30.63;;
14472;SDS011;7322;50.872;4.386;2022-11-20T06:06:35;60.20;;;31.43;;
14472;SDS011;7322;50.872;4.386;2022-11-20T06:11:46;61.13;;;31.63;;
14472;SDS011;7322;50.872;4.386;2022-11-20T06:14:20;55.80;;;29.10;;
14472;SDS011;7322;50.872;4.386;2022-11-20T06:16:47;61.00;;;30.10;;
14472;SDS011;7322;50.872;4.386;2022-11-20T06:19:16;60.37;;;29.90;;
14472;SDS011;7322;50.872;4.386;2022-11-20T06:21:46;57.93;;;30.37;;
14472;SDS011;7322;50.872;4.386;2022-11-20T06:24:15;59.77;;;30.50;;
14472;SDS011;7322;50.872;4.386;2022-11-20T06:26:47;60.27;;;30.90;;
14472;SDS011;7322;50.872;4.386;2022-11-20T06:29:31;62.17;;;30.93;;
14472;SDS011;7322;50.872;4.386;2022-11-20T06:31:59;62.77;;;30.43;;
14472;SDS011;7322;50.872;4.386;2022-11-20T06:42:38;62.33;;;30.50;;
14472;SDS011;7322;50.872;4.386;2022-11-20T06:45:56;65.53;;;30.63;;
14472;SDS011;7322;50.872;4.386;2022-11-20T06:48:26;63.70;;;32.30;;
14472;SDS011;7322;50.872;4.386;2022-11-20T06:51:09;65.57;;;32.13;;
14472;SDS011;7322;50.872;4.386;2022-11-20T06:53:38;67.67;;;32.17;;
14472;SDS011;7322;50.872;4.386;2022-11-20T06:56:09;56.03;;;29.83;;
14472;SDS011;7322;50.872;4.386;2022-11-20T06:58:50;63.73;;;30.00;;
14472;SDS011;7322;50.872;4.386;2022-11-20T07:01:26;62.23;;;31.30;;
14472;SDS011;7322;50.872;4.386;2022-11-20T07:06:27;61.60;;;31.53;;
14472;SDS011;7322;50.872;4.386;2022-11-20T07:11:59;60.87;;;29.87;;
14472;SDS011;7322;50.872;4.386;2022-11-20T07:14:27;61.97;;;30.50;;
14472;SDS011;7322;50.872;4.386;2022-11-20T07:16:56;58.83;;;29.93;;
14472;SDS011;7322;50.872;4.386;2022-11-20T07:19:32;62.20;;;29.53;;
14472;SDS011;7322;50.872;4.386;2022-11-20T07:24:44;58.53;;;29.53;;
14472;SDS011;7322;50.872;4.386;2022-11-20T07:27:16;54.83;;;28.50;;
14472;SDS011;7322;50.872;4.386;2022-11-20T07:29:44;56.73;;;29.23;;
14472;SDS011;7322;50.872;4.386;2022-11-20T07:32:16;55.33;;;29.40;;
14472;SDS011;7322;50.872;4.386;2022-11-20T07:37:41;58.80;;;29.80;;
14472;SDS011;7322;50.872;4.386;2022-11-20T07:40:22;53.57;;;28.63;;
14472;SDS011;7322;50.872;4.386;2022-11-20T07:42:52;56.30;;;29.33;;
14472;SDS011;7322;50.872;4.386;2022-11-20T07:55:19;53.73;;;28.10;;
14472;SDS011;7322;50.872;4.386;2022-11-20T08:01:05;57.83;;;29.93;;
14472;SDS011;7322;50.872;4.386;2022-11-20T08:03:39;57.23;;;28.57;;
14472;SDS011;7322;50.872;4.386;2022-11-20T08:14:40;57.77;;;27.93;;
14472;SDS011;7322;50.872;4.386;2022-11-20T08:17:08;63.10;;;29.13;;
14472;SDS011;7322;50.872;4.386;2022-11-20T08:25:12;53.87;;;28.23;;
14472;SDS011;7322;50.872;4.386;2022-11-20T08:27:39;57.33;;;27.63;;
14472;SDS011;7322;50.872;4.386;2022-11-20T08:30:15;55.93;;;28.53;;
14472;SDS011;7322;50.872;4.386;2022-11-20T08:32:54;55.97;;;27.27;;
14472;SDS011;7322;50.872;4.386;2022-11-20T08:38:14;55.93;;;27.20;;
14472;SDS011;7322;50.872;4.386;2022-11-20T08:40:45;52.03;;;26.10;;
14472;SDS011;7322;50.872;4.386;2022-11-20T08:43:50;58.20;;;28.20;;
14472;SDS011;7322;50.872;4.386;2022-11-20T08:46:27;58.53;;;28.27;;
14472;SDS011;7322;50.872;4.386;2022-11-20T08:49:16;50.13;;;27.03;;
14472;SDS011;7322;50.872;4.386;2022-11-20T08:51:44;51.57;;;27.50;;
14472;SDS011;7322;50.872;4.386;2022-11-20T08:54:17;51.70;;;26.87;;
14472;SDS011;7322;50.872;4.386;2022-11-20T08:56:48;51.63;;;27.07;;
14472;SDS011;7322;50.872;4.386;2022-11-20T08:59:15;49.17;;;25.47;;
14472;SDS011;7322;50.872;4.386;2022-11-20T09:01:48;52.57;;;27.00;;
14472;SDS011;7322;50.872;4.386;2022-11-20T09:04:15;49.93;;;26.53;;
14472;SDS011;7322;50.872;4.386;2022-11-20T09:06:45;46.83;;;25.37;;
14472;SDS011;7322;50.872;4.386;2022-11-20T09:09:16;52.93;;;26.07;;
14472;SDS011;7322;50.872;4.386;2022-11-20T09:11:43;52.37;;;26.00;;
14472;SDS011;7322;50.872;4.386;2022-11-20T09:14:18;51.13;;;24.40;;
14472;SDS011;7322;50.872;4.386;2022-11-20T09:16:52;46.67;;;24.97;;
14472;SDS011;7322;50.872;4.386;2022-11-20T09:21:50;49.60;;;24.80;;
14472;SDS011;7322;50.872;4.386;2022-11-20T09:24:19;42.23;;;22.53;;
14472;SDS011;7322;50.872;4.386;2022-11-20T09:26:47;42.03;;;23.53;;
14472;SDS011;7322;50.872;4.386;2022-11-20T09:29:14;41.03;;;23.17;;
14472;SDS011;7322;50.872;4.386;2022-11-20T09:31:41;42.03;;;22.43;;
14472;SDS011;7322;50.872;4.386;2022-11-20T09:34:16;40.10;;;23.10;;
14472;SDS011;7322;50.872;4.386;2022-11-20T09:36:43;40.17;;;21.10;;
14472;SDS011;7322;50.872;4.386;2022-11-20T09:39:11;35.47;;;20.30;;
14472;SDS011;7322;50.872;4.386;2022-11-20T09:44:48;34.67;;;20.43;;
14472;SDS011;7322;50.872;4.386;2022-11-20T09:47:23;32.40;;;18.53;;
14472;SDS011;7322;50.872;4.386;2022-11-20T09:50:05;39.63;;;19.83;;
14472;SDS011;7322;50.872;4.386;2022-11-20T09:52:45;34.20;;;19.90;;
14472;SDS011;7322;50.872;4.386;2022-11-20T09:55:19;34.60;;;19.43;;
14472;SDS011;7322;50.872;4.386;2022-11-20T09:57:48;31.20;;;18.73;;
14472;SDS011;7322;50.872;4.386;2022-11-20T10:00:18;29.57;;;18.43;;
14472;SDS011;7322;50.872;4.386;2022-11-20T10:02:58;31.73;;;17.57;;
14472;SDS011;7322;50.872;4.386;2022-11-20T10:05:30;30.20;;;19.53;;
14472;SDS011;7322;50.872;4.386;2022-11-20T10:08:05;28.53;;;16.83;;
14472;SDS011;7322;50.872;4.386;2022-11-20T10:10:43;26.67;;;15.27;;
14472;SDS011;7322;50.872;4.386;2022-11-20T10:13:17;24.20;;;15.50;;
14472;SDS011;7322;50.872;4.386;2022-11-20T10:15:58;27.00;;;16.40;;
14472;SDS011;7322;50.872;4.386;2022-11-20T10:18:40;24.20;;;15.63;;
14472;SDS011;7322;50.872;4.386;2022-11-20T10:21:26;22.43;;;13.70;;
14472;SDS011;7322;50.872;4.386;2022-11-20T10:24:05;24.73;;;13.97;;
14472;SDS011;7322;50.872;4.386;2022-11-20T10:27:01;19.60;;;12.33;;
14472;SDS011;7322;50.872;4.386;2022-11-20T10:32:09;19.33;;;11.47;;
14472;SDS011;7322;50.872;4.386;2022-11-20T10:34:46;17.43;;;10.70;;
14472;SDS011;7322;50.872;4.386;2022-11-20T10:37:25;16.37;;;10.87;;
14472;SDS011;7322;50.872;4.386;2022-11-20T10:39:55;17.73;;;10.20;;
14472;SDS011;7322;50.872;4.386;2022-11-20T10:42:35;16.00;;;10.10;;
14472;SDS011;7322;50.872;4.386;2022-11-20T10:45:10;15.70;;;9.17;;
14472;SDS011;7322;50.872;4.386;2022-11-20T10:47:49;13.30;;;8.60;;
14472;SDS011;7322;50.872;4.386;2022-11-20T10:50:19;15.37;;;8.60;;
14472;SDS011;7322;50.872;4.386;2022-11-20T10:52:56;17.17;;;8.60;;
14472;SDS011;7322;50.872;4.386;2022-11-20T10:55:33;11.30;;;7.63;;
14472;SDS011;7322;50.872;4.386;2022-11-20T10:58:10;15.43;;;7.10;;
14472;SDS011;7322;50.872;4.386;2022-11-20T11:00:42;12.37;;;6.60;;
14472;SDS011;7322;50.872;4.386;2022-11-20T11:03:14;11.33;;;6.17;;
14472;SDS011;7322;50.872;4.386;2022-11-20T11:05:50;14.23;;;6.33;;
14472;SDS011;7322;50.872;4.386;2022-11-20T11:08:33;12.17;;;5.73;;
14472;SDS011;7322;50.872;4.386;2022-11-20T11:11:10;10.60;;;5.87;;
14472;SDS011;7322;50.872;4.386;2022-11-20T11:14:03;10.80;;;5.20;;
14472;SDS011;7322;50.872;4.386;2022-11-20T11:16:32;10.27;;;5.13;;
14472;SDS011;7322;50.872;4.386;2022-11-20T11:19:11;9.83;;;5.23;;
14472;SDS011;7322;50.872;4.386;2022-11-20T11:21:44;12.83;;;5.17;;
14472;SDS011;7322;50.872;4.386;2022-11-20T11:24:27;11.10;;;4.97;;
14472;SDS011;7322;50.872;4.386;2022-11-20T11:27:00;7.67;;;4.43;;
14472;SDS011;7322;50.872;4.386;2022-11-20T11:29:30;10.17;;;4.90;;
14472;SDS011;7322;50.872;4.386;2022-11-20T11:32:04;11.70;;;4.20;;
14472;SDS011;7322;50.872;4.386;2022-11-20T11:34:32;10.70;;;4.40;;
14472;SDS011;7322;50.872;4.386;2022-11-20T11:37:01;8.10;;;3.87;;
14472;SDS011;7322;50.872;4.386;2022-11-20T11:39:32;5.70;;;3.70;;
14472;SDS011;7322;50.872;4.386;2022-11-20T11:42:00;9.77;;;4.13;;
14472;SDS011;7322;50.872;4.386;2022-11-20T11:44:28;8.67;;;4.00;;
14472;SDS011;7322;50.872;4.386;2022-11-20T11:47:20;8.87;;;4.43;;
14472;SDS011;7322;50.872;4.386;2022-11-20T11:50:00;12.80;;;4.50;;
14472;SDS011;7322;50.872;4.386;2022-11-20T11:52:30;6.67;;;4.00;;
14472;SDS011;7322;50.872;4.386;2022-11-20T11:55:07;8.73;;;4.23;;
14472;SDS011;7322;50.872;4.386;2022-11-20T11:57:41;8.30;;;4.30;;
14472;SDS011;7322;50.872;4.386;2022-11-20T12:00:15;7.93;;;4.10;;
14472;SDS011;7322;50.872;4.386;2022-11-20T12:02:49;8.67;;;3.87;;
14472;SDS011;7322;50.872;4.386;2022-11-20T12:05:27;8.20;;;3.80;;
14472;SDS011;7322;50.872;4.386;2022-11-20T12:07:57;7.50;;;3.80;;
14472;SDS011;7322;50.872;4.386;2022-11-20T12:10:44;8.10;;;4.00;;
14472;SDS011;7322;50.872;4.386;2022-11-20T12:13:17;7.67;;;3.73;;
14472;SDS011;7322;50.872;4.386;2022-11-20T12:18:36;8.83;;;3.30;;
14472;SDS011;7322;50.872;4.386;2022-11-20T12:21:07;8.40;;;4.37;;
14472;SDS011;7322;50.872;4.386;2022-11-20T12:23:48;8.10;;;3.70;;
14472;SDS011;7322;50.872;4.386;2022-11-20T12:29:37;13.27;;;4.00;;
14472;SDS011;7322;50.872;4.386;2022-11-20T12:32:23;8.43;;;3.50;;
14472;SDS011;7322;50.872;4.386;2022-11-20T12:35:12;9.00;;;3.73;;
14472;SDS011;7322;50.872;4.386;2022-11-20T12:37:53;8.27;;;3.57;;
14472;SDS011;7322;50.872;4.386;2022-11-20T12:40:32;6.93;;;3.73;;
14472;SDS011;7322;50.872;4.386;2022-11-20T12:43:09;6.20;;;3.60;;
14472;SDS011;7322;50.872;4.386;2022-11-20T12:49:03;9.00;;;4.10;;
14472;SDS011;7322;50.872;4.386;2022-11-20T12:51:51;7.57;;;3.57;;
14472;SDS011;7322;50.872;4.386;2022-11-20T12:57:53;7.80;;;3.70;;
14472;SDS011;7322;50.872;4.386;2022-11-20T13:00:23;8.10;;;3.80;;
14472;SDS011;7322;50.872;4.386;2022-11-20T13:03:14;7.30;;;4.10;;
14472;SDS011;7322;50.872;4.386;2022-11-20T13:05:55;9.30;;;3.73;;
14472;SDS011;7322;50.872;4.386;2022-11-20T13:08:30;7.73;;;3.77;;
14472;SDS011;7322;50.872;4.386;2022-11-20T13:11:03;6.97;;;3.70;;
14472;SDS011;7322;50.872;4.386;2022-11-20T13:13:42;8.83;;;3.97;;
14472;SDS011;7322;50.872;4.386;2022-11-20T13:16:30;7.00;;;4.10;;
14472;SDS011;7322;50.872;4.386;2022-11-20T13:19:08;8.93;;;3.90;;
14472;SDS011;7322;50.872;4.386;2022-11-20T13:21:40;6.30;;;3.73;;
14472;SDS011;7322;50.872;4.386;2022-11-20T13:24:20;8.53;;;5.53;;
14472;SDS011;7322;50.872;4.386;2022-11-20T13:26:59;7.50;;;3.90;;
14472;SDS011;7322;50.872;4.386;2022-11-20T13:29:30;7.30;;;4.07;;
14472;SDS011;7322;50.872;4.386;2022-11-20T13:32:02;6.20;;;3.57;;
14472;SDS011;7322;50.872;4.386;2022-11-20T13:34:35;5.97;;;3.20;;
14472;SDS011;7322;50.872;4.386;2022-11-20T13:37:02;7.50;;;3.73;;
14472;SDS011;7322;50.872;4.386;2022-11-20T13:39:30;6.17;;;3.63;;
14472;SDS011;7322;50.872;4.386;2022-11-20T13:41:59;5.37;;;3.40;;
14472;SDS011;7322;50.872;4.386;2022-11-20T13:44:33;7.27;;;4.17;;
14472;SDS011;7322;50.872;4.386;2022-11-20T13:47:17;8.03;;;4.43;;
14472;SDS011;7322;50.872;4.386;2022-11-20T13:49:48;5.83;;;3.13;;
14472;SDS011;7322;50.872;4.386;2022-11-20T13:52:34;7.03;;;3.60;;
14472;SDS011;7322;50.872;4.386;2022-11-20T13:55:14;5.17;;;3.33;;
14472;SDS011;7322;50.872;4.386;2022-11-20T13:57:57;5.70;;;3.60;;
14472;SDS011;7322;50.872;4.386;2022-11-20T14:00:45;6.37;;;3.83;;
14472;SDS011;7322;50.872;4.386;2022-11-20T14:03:21;6.33;;;3.50;;
14472;SDS011;7322;50.872;4.386;2022-11-20T14:05:53;5.37;;;3.70;;
14472;SDS011;7322;50.872;4.386;2022-11-20T14:08:30;5.23;;;3.50;;
14472;SDS011;7322;50.872;4.386;2022-11-20T14:11:04;5.63;;;3.30;;
14472;SDS011;7322;50.872;4.386;2022-11-20T14:13:32;6.10;;;3.73;;
14472;SDS011;7322;50.872;4.386;2022-11-20T14:16:00;4.53;;;3.30;;
14472;SDS011;7322;50.872;4.386;2022-11-20T14:18:35;5.53;;;3.47;;
14472;SDS011;7322;50.872;4.386;2022-11-20T14:21:08;6.03;;;3.57;;
14472;SDS011;7322;50.872;4.386;2022-11-20T14:23:36;5.23;;;3.30;;
14472;SDS011;7322;50.872;4.386;2022-11-20T14:26:06;4.40;;;3.20;;
14472;SDS011;7322;50.872;4.386;2022-11-20T14:28:47;4.07;;;3.20;;
14472;SDS011;7322;50.872;4.386;2022-11-20T14:31:18;4.00;;;3.10;;
14472;SDS011;7322;50.872;4.386;2022-11-20T14:33:53;4.10;;;3.00;;
14472;SDS011;7322;50.872;4.386;2022-11-20T14:36:23;6.77;;;3.60;;
14472;SDS011;7322;50.872;4.386;2022-11-20T14:38:53;5.43;;;4.03;;
14472;SDS011;7322;50.872;4.386;2022-11-20T14:41:21;5.70;;;3.47;;
14472;SDS011;7322;50.872;4.386;2022-11-20T14:43:52;5.40;;;3.93;;
14472;SDS011;7322;50.872;4.386;2022-11-20T14:46:24;6.10;;;4.03;;
14472;SDS011;7322;50.872;4.386;2022-11-20T14:49:01;6.07;;;3.90;;
14472;SDS011;7322;50.872;4.386;2022-11-20T14:51:34;6.63;;;4.57;;
14472;SDS011;7322;50.872;4.386;2022-11-20T14:54:15;7.73;;;4.20;;
14472;SDS011;7322;50.872;4.386;2022-11-20T14:59:22;8.10;;;4.77;;
14472;SDS011;7322;50.872;4.386;2022-11-20T15:01:58;7.80;;;4.67;;
14472;SDS011;7322;50.872;4.386;2022-11-20T15:04:44;7.10;;;4.57;;
14472;SDS011;7322;50.872;4.386;2022-11-20T15:07:26;4.70;;;3.97;;
14472;SDS011;7322;50.872;4.386;2022-11-20T15:10:02;5.50;;;4.27;;
14472;SDS011;7322;50.872;4.386;2022-11-20T15:12:32;4.50;;;4.00;;
14472;SDS011;7322;50.872;4.386;2022-11-20T15:15:04;6.83;;;4.57;;
14472;SDS011;7322;50.872;4.386;2022-11-20T15:17:33;6.57;;;4.10;;
14472;SDS011;7322;50.872;4.386;2022-11-20T15:20:09;5.63;;;4.10;;
14472;SDS011;7322;50.872;4.386;2022-11-20T15:23:00;8.40;;;3.90;;
14472;SDS011;7322;50.872;4.386;2022-11-20T15:34:20;6.23;;;4.80;;
14472;SDS011;7322;50.872;4.386;2022-11-20T15:37:02;8.80;;;5.03;;
14472;SDS011;7322;50.872;4.386;2022-11-20T15:39:37;11.10;;;5.23;;
14472;SDS011;7322;50.872;4.386;2022-11-20T15:42:20;9.30;;;5.50;;
14472;SDS011;7322;50.872;4.386;2022-11-20T15:44:57;7.23;;;4.87;;
14472;SDS011;7322;50.872;4.386;2022-11-20T15:50:13;8.03;;;5.53;;
14472;SDS011;7322;50.872;4.386;2022-11-20T15:53:01;9.87;;;5.60;;
14472;SDS011;7322;50.872;4.386;2022-11-20T15:55:30;8.03;;;5.23;;
14472;SDS011;7322;50.872;4.386;2022-11-20T15:58:03;12.67;;;5.30;;
14472;SDS011;7322;50.872;4.386;2022-11-20T16:00:33;12.77;;;5.87;;
14472;SDS011;7322;50.872;4.386;2022-11-20T16:03:01;12.87;;;6.80;;
14472;SDS011;7322;50.872;4.386;2022-11-20T16:05:30;12.50;;;5.93;;
14472;SDS011;7322;50.872;4.386;2022-11-20T16:14:48;13.73;;;5.60;;
14472;SDS011;7322;50.872;4.386;2022-11-20T16:17:41;13.80;;;4.40;;
14472;SDS011;7322;50.872;4.386;2022-11-20T16:20:11;19.17;;;4.90;;
14472;SDS011;7322;50.872;4.386;2022-11-20T16:22:39;12.33;;;5.20;;
14472;SDS011;7322;50.872;4.386;2022-11-20T16:25:08;15.07;;;4.70;;
14472;SDS011;7322;50.872;4.386;2022-11-20T16:27:37;16.30;;;5.10;;
14472;SDS011;7322;50.872;4.386;2022-11-20T16:30:07;15.80;;;4.57;;
14472;SDS011;7322;50.872;4.386;2022-11-20T16:32:35;19.60;;;4.23;;
14472;SDS011;7322;50.872;4.386;2022-11-20T16:35:05;15.37;;;4.23;;
14472;SDS011;7322;50.872;4.386;2022-11-20T16:37:37;14.07;;;4.10;;
14472;SDS011;7322;50.872;4.386;2022-11-20T16:40:04;18.20;;;4.53;;
14472;SDS011;7322;50.872;4.386;2022-11-20T16:42:33;14.10;;;4.50;;
14472;SDS011;7322;50.872;4.386;2022-11-20T16:45:02;22.10;;;5.03;;
14472;SDS011;7322;50.872;4.386;2022-11-20T16:47:50;17.77;;;4.70;;
14472;SDS011;7322;50.872;4.386;2022-11-20T16:50:25;17.67;;;4.30;;
14472;SDS011;7322;50.872;4.386;2022-11-20T16:52:54;20.60;;;5.60;;
14472;SDS011;7322;50.872;4.386;2022-11-20T16:55:21;13.87;;;4.40;;
14472;SDS011;7322;50.872;4.386;2022-11-20T16:57:49;17.00;;;4.70;;
14472;SDS011;7322;50.872;4.386;2022-11-20T17:00:17;16.80;;;5.07;;
14472;SDS011;7322;50.872;4.386;2022-11-20T17:02:45;15.53;;;4.23;;
14472;SDS011;7322;50.872;4.386;2022-11-20T17:05:15;17.37;;;5.33;;
14472;SDS011;7322;50.872;4.386;2022-11-20T17:07:47;18.07;;;3.63;;
14472;SDS011;7322;50.872;4.386;2022-11-20T17:10:15;8.50;;;2.10;;
14472;SDS011;7322;50.872;4.386;2022-11-20T17:15:28;9.43;;;2.80;;
14472;SDS011;7322;50.872;4.386;2022-11-20T17:18:12;9.77;;;3.30;;
14472;SDS011;7322;50.872;4.386;2022-11-20T17:20:45;12.70;;;3.93;;
14472;SDS011;7322;50.872;4.386;2022-11-20T17:23:19;15.07;;;4.10;;
14472;SDS011;7322;50.872;4.386;2022-11-20T17:25:48;19.57;;;5.10;;
14472;SDS011;7322;50.872;4.386;2022-11-20T17:28:22;15.30;;;5.27;;
14472;SDS011;7322;50.872;4.386;2022-11-20T17:30:58;22.10;;;5.00;;
14472;SDS011;7322;50.872;4.386;2022-11-20T17:33:27;20.77;;;4.80;;
14472;SDS011;7322;50.872;4.386;2022-11-20T17:35:58;21.00;;;3.27;;
14472;SDS011;7322;50.872;4.386;2022-11-20T17:38:25;12.27;;;2.27;;
14472;SDS011;7322;50.872;4.386;2022-11-20T17:40:52;10.57;;;2.57;;
14472;SDS011;7322;50.872;4.386;2022-11-20T17:43:19;15.73;;;3.30;;
14472;SDS011;7322;50.872;4.386;2022-11-20T17:45:47;10.93;;;2.90;;
14472;SDS011;7322;50.872;4.386;2022-11-20T17:48:22;13.33;;;3.87;;
14472;SDS011;7322;50.872;4.386;2022-11-20T17:50:49;21.17;;;4.07;;
14472;SDS011;7322;50.872;4.386;2022-11-20T17:53:19;12.57;;;3.20;;
14472;SDS011;7322;50.872;4.386;2022-11-20T17:55:53;12.23;;;3.03;;
14472;SDS011;7322;50.872;4.386;2022-11-20T17:58:40;14.03;;;3.93;;
14472;SDS011;7322;50.872;4.386;2022-11-20T18:01:09;16.00;;;3.93;;
14472;SDS011;7322;50.872;4.386;2022-11-20T18:03:37;10.03;;;3.10;;
14472;SDS011;7322;50.872;4.386;2022-11-20T18:06:09;10.17;;;3.33;;
14472;SDS011;7322;50.872;4.386;2022-11-20T18:08:38;13.10;;;3.77;;
14472;SDS011;7322;50.872;4.386;2022-11-20T18:11:11;12.10;;;3.90;;
14472;SDS011;7322;50.872;4.386;2022-11-20T18:13:39;11.37;;;4.50;;
14472;SDS011;7322;50.872;4.386;2022-11-20T18:16:27;14.13;;;5.50;;